Terminal Aerodrome Forecast
Issued by NWS Sterling, VA

Home | Current Version | Previous Version | Text Only | Print | Product List | Glossary On
Versions: 1 2 3 4 5 6 7 8 9 10 11 12 13 14 15 16 17 18 19 20 21 22 23 24 25 26 27 28 29 30 31 32 33
000
FTUS41 KLWX 211130
TAFIAD
TAF
KIAD 211130Z 2112/2218 28008KT P6SM FEW090
     FM211300 29012G20KT P6SM FEW250
     FM212200 25012KT P6SM SCT070
     FM220000 23006KT P6SM FEW250
     FM220700 22006KT P6SM BKN080
     FM221300 21010KT P6SM BKN250
     FM221600 22015G23KT P6SM BKN120=

USA.gov is the U.S. government's official web portal to all federal, state and local government web resources and services.